sensor_id;sensor_type;location;lat;lon;timestamp;P1;durP1;ratioP1;P2;durP2;ratioP2
76115;SDS011;64847;45.778;12.802;2023-11-21T00:01:15;13.77;;;12.10;;
76115;SDS011;64847;45.778;12.802;2023-11-21T00:03:40;12.67;;;11.37;;
76115;SDS011;64847;45.778;12.802;2023-11-21T00:06:06;13.23;;;11.83;;
76115;SDS011;64847;45.778;12.802;2023-11-21T00:08:34;12.30;;;11.03;;
76115;SDS011;64847;45.778;12.802;2023-11-21T00:11:00;11.97;;;10.77;;
76115;SDS011;64847;45.778;12.802;2023-11-21T00:13:26;12.13;;;10.93;;
76115;SDS011;64847;45.778;12.802;2023-11-21T00:15:51;11.87;;;10.63;;
76115;SDS011;64847;45.778;12.802;2023-11-21T00:18:17;12.63;;;11.33;;
76115;SDS011;64847;45.778;12.802;2023-11-21T00:20:42;13.40;;;12.10;;
76115;SDS011;64847;45.778;12.802;2023-11-21T00:23:08;12.70;;;11.17;;
76115;SDS011;64847;45.778;12.802;2023-11-21T00:25:35;13.70;;;12.30;;
76115;SDS011;64847;45.778;12.802;2023-11-21T00:28:00;12.97;;;11.63;;
76115;SDS011;64847;45.778;12.802;2023-11-21T00:30:26;13.33;;;12.00;;
76115;SDS011;64847;45.778;12.802;2023-11-21T00:32:52;12.53;;;11.33;;
76115;SDS011;64847;45.778;12.802;2023-11-21T00:35:18;11.47;;;10.37;;
76115;SDS011;64847;45.778;12.802;2023-11-21T00:37:43;13.80;;;11.33;;
76115;SDS011;64847;45.778;12.802;2023-11-21T00:40:09;12.53;;;11.33;;
76115;SDS011;64847;45.778;12.802;2023-11-21T00:42:35;11.03;;;10.03;;
76115;SDS011;64847;45.778;12.802;2023-11-21T00:45:00;11.67;;;10.40;;
76115;SDS011;64847;45.778;12.802;2023-11-21T00:47:27;12.33;;;11.13;;
76115;SDS011;64847;45.778;12.802;2023-11-21T00:49:52;12.37;;;10.77;;
76115;SDS011;64847;45.778;12.802;2023-11-21T00:52:18;11.97;;;10.87;;
76115;SDS011;64847;45.778;12.802;2023-11-21T00:54:43;12.77;;;11.53;;
76115;SDS011;64847;45.778;12.802;2023-11-21T00:57:09;12.80;;;11.60;;
76115;SDS011;64847;45.778;12.802;2023-11-21T00:59:36;13.30;;;11.90;;
76115;SDS011;64847;45.778;12.802;2023-11-21T01:02:02;13.57;;;12.17;;
76115;SDS011;64847;45.778;12.802;2023-11-21T01:04:30;13.47;;;12.07;;
76115;SDS011;64847;45.778;12.802;2023-11-21T01:06:56;13.50;;;12.13;;
76115;SDS011;64847;45.778;12.802;2023-11-21T01:09:22;15.23;;;12.87;;
76115;SDS011;64847;45.778;12.802;2023-11-21T01:11:47;12.93;;;11.47;;
76115;SDS011;64847;45.778;12.802;2023-11-21T01:14:13;12.93;;;11.70;;
76115;SDS011;64847;45.778;12.802;2023-11-21T01:16:38;13.07;;;11.80;;
76115;SDS011;64847;45.778;12.802;2023-11-21T01:19:04;12.37;;;11.23;;
76115;SDS011;64847;45.778;12.802;2023-11-21T01:21:29;12.83;;;11.53;;
76115;SDS011;64847;45.778;12.802;2023-11-21T01:23:56;12.13;;;11.00;;
76115;SDS011;64847;45.778;12.802;2023-11-21T01:26:21;12.33;;;11.17;;
76115;SDS011;64847;45.778;12.802;2023-11-21T01:28:47;12.20;;;10.93;;
76115;SDS011;64847;45.778;12.802;2023-11-21T01:31:14;11.83;;;10.73;;
76115;SDS011;64847;45.778;12.802;2023-11-21T01:33:40;11.83;;;10.73;;
76115;SDS011;64847;45.778;12.802;2023-11-21T01:36:05;11.67;;;10.50;;
76115;SDS011;64847;45.778;12.802;2023-11-21T01:38:31;12.03;;;10.97;;
76115;SDS011;64847;45.778;12.802;2023-11-21T01:40:57;10.83;;;9.90;;
76115;SDS011;64847;45.778;12.802;2023-11-21T01:43:22;11.07;;;9.97;;
76115;SDS011;64847;45.778;12.802;2023-11-21T01:45:48;11.50;;;10.43;;
76115;SDS011;64847;45.778;12.802;2023-11-21T01:48:13;11.33;;;10.13;;
76115;SDS011;64847;45.778;12.802;2023-11-21T01:50:41;10.90;;;9.90;;
76115;SDS011;64847;45.778;12.802;2023-11-21T01:53:07;12.00;;;10.70;;
76115;SDS011;64847;45.778;12.802;2023-11-21T01:55:33;11.10;;;10.10;;
76115;SDS011;64847;45.778;12.802;2023-11-21T01:57:58;10.00;;;9.20;;
76115;SDS011;64847;45.778;12.802;2023-11-21T02:00:24;10.47;;;9.47;;
76115;SDS011;64847;45.778;12.802;2023-11-21T02:02:53;10.90;;;9.90;;
76115;SDS011;64847;45.778;12.802;2023-11-21T02:05:19;11.20;;;10.10;;
76115;SDS011;64847;45.778;12.802;2023-11-21T02:07:45;10.73;;;9.70;;
76115;SDS011;64847;45.778;12.802;2023-11-21T02:10:13;11.40;;;10.20;;
76115;SDS011;64847;45.778;12.802;2023-11-21T02:12:43;10.43;;;9.43;;
76115;SDS011;64847;45.778;12.802;2023-11-21T02:15:13;11.10;;;10.00;;
76115;SDS011;64847;45.778;12.802;2023-11-21T02:17:45;10.37;;;9.47;;
76115;SDS011;64847;45.778;12.802;2023-11-21T02:20:16;9.63;;;8.77;;
76115;SDS011;64847;45.778;12.802;2023-11-21T02:22:43;9.40;;;8.60;;
76115;SDS011;64847;45.778;12.802;2023-11-21T02:25:09;9.57;;;8.33;;
76115;SDS011;64847;45.778;12.802;2023-11-21T02:27:34;9.30;;;8.50;;
76115;SDS011;64847;45.778;12.802;2023-11-21T02:30:00;9.07;;;8.17;;
76115;SDS011;64847;45.778;12.802;2023-11-21T02:32:26;9.73;;;8.73;;
76115;SDS011;64847;45.778;12.802;2023-11-21T02:34:51;10.00;;;9.13;;
76115;SDS011;64847;45.778;12.802;2023-11-21T02:37:18;10.33;;;9.27;;
76115;SDS011;64847;45.778;12.802;2023-11-21T02:39:44;10.67;;;9.57;;
76115;SDS011;64847;45.778;12.802;2023-11-21T02:42:09;9.57;;;8.77;;
76115;SDS011;64847;45.778;12.802;2023-11-21T02:44:34;10.00;;;9.10;;
76115;SDS011;64847;45.778;12.802;2023-11-21T02:47:00;10.47;;;9.47;;
76115;SDS011;64847;45.778;12.802;2023-11-21T02:49:25;10.40;;;9.50;;
76115;SDS011;64847;45.778;12.802;2023-11-21T02:51:53;10.67;;;9.57;;
76115;SDS011;64847;45.778;12.802;2023-11-21T02:54:20;11.60;;;10.50;;
76115;SDS011;64847;45.778;12.802;2023-11-21T02:56:47;11.63;;;10.57;;
76115;SDS011;64847;45.778;12.802;2023-11-21T02:59:13;12.67;;;11.23;;
76115;SDS011;64847;45.778;12.802;2023-11-21T03:01:38;12.53;;;11.23;;
76115;SDS011;64847;45.778;12.802;2023-11-21T03:04:03;12.03;;;10.93;;
76115;SDS011;64847;45.778;12.802;2023-11-21T03:06:29;12.33;;;11.23;;
76115;SDS011;64847;45.778;12.802;2023-11-21T03:08:54;11.53;;;10.47;;
76115;SDS011;64847;45.778;12.802;2023-11-21T03:11:20;11.27;;;10.30;;
76115;SDS011;64847;45.778;12.802;2023-11-21T03:13:45;10.53;;;9.63;;
76115;SDS011;64847;45.778;12.802;2023-11-21T03:16:11;11.50;;;10.27;;
76115;SDS011;64847;45.778;12.802;2023-11-21T03:18:37;10.90;;;9.80;;
76115;SDS011;64847;45.778;12.802;2023-11-21T03:21:03;11.27;;;10.20;;
76115;SDS011;64847;45.778;12.802;2023-11-21T03:23:30;11.03;;;10.03;;
76115;SDS011;64847;45.778;12.802;2023-11-21T03:25:55;10.80;;;9.80;;
76115;SDS011;64847;45.778;12.802;2023-11-21T03:28:21;11.77;;;10.67;;
76115;SDS011;64847;45.778;12.802;2023-11-21T03:30:46;11.43;;;10.43;;
76115;SDS011;64847;45.778;12.802;2023-11-21T03:33:12;12.03;;;10.93;;
76115;SDS011;64847;45.778;12.802;2023-11-21T03:35:37;12.87;;;11.67;;
76115;SDS011;64847;45.778;12.802;2023-11-21T03:38:03;11.63;;;10.53;;
76115;SDS011;64847;45.778;12.802;2023-11-21T03:40:29;12.50;;;11.30;;
76115;SDS011;64847;45.778;12.802;2023-11-21T03:42:56;12.03;;;10.93;;
76115;SDS011;64847;45.778;12.802;2023-11-21T03:45:22;11.60;;;10.40;;
76115;SDS011;64847;45.778;12.802;2023-11-21T03:47:47;11.47;;;10.37;;
76115;SDS011;64847;45.778;12.802;2023-11-21T03:50:13;11.93;;;10.77;;
76115;SDS011;64847;45.778;12.802;2023-11-21T03:52:38;12.10;;;10.93;;
76115;SDS011;64847;45.778;12.802;2023-11-21T03:55:04;11.53;;;10.50;;
76115;SDS011;64847;45.778;12.802;2023-11-21T03:57:29;11.60;;;10.57;;
76115;SDS011;64847;45.778;12.802;2023-11-21T03:59:55;12.43;;;11.23;;
76115;SDS011;64847;45.778;12.802;2023-11-21T04:02:20;13.33;;;12.00;;
76115;SDS011;64847;45.778;12.802;2023-11-21T04:04:46;12.80;;;11.67;;
76115;SDS011;64847;45.778;12.802;2023-11-21T04:07:12;13.20;;;11.93;;
76115;SDS011;64847;45.778;12.802;2023-11-21T04:09:38;12.77;;;11.47;;
76115;SDS011;64847;45.778;12.802;2023-11-21T04:12:04;13.07;;;11.67;;
76115;SDS011;64847;45.778;12.802;2023-11-21T04:14:30;12.47;;;11.27;;
76115;SDS011;64847;45.778;12.802;2023-11-21T04:16:55;12.83;;;11.67;;
76115;SDS011;64847;45.778;12.802;2023-11-21T04:19:20;13.17;;;11.80;;
76115;SDS011;64847;45.778;12.802;2023-11-21T04:21:46;11.63;;;10.53;;
76115;SDS011;64847;45.778;12.802;2023-11-21T04:24:11;11.83;;;10.73;;
76115;SDS011;64847;45.778;12.802;2023-11-21T04:26:37;11.57;;;10.43;;
76115;SDS011;64847;45.778;12.802;2023-11-21T04:29:02;12.20;;;11.00;;
76115;SDS011;64847;45.778;12.802;2023-11-21T04:31:29;11.90;;;10.80;;
76115;SDS011;64847;45.778;12.802;2023-11-21T04:33:55;11.60;;;10.50;;
76115;SDS011;64847;45.778;12.802;2023-11-21T04:36:20;11.97;;;10.87;;
76115;SDS011;64847;45.778;12.802;2023-11-21T04:38:45;12.23;;;11.03;;
76115;SDS011;64847;45.778;12.802;2023-11-21T04:41:11;12.70;;;11.50;;
76115;SDS011;64847;45.778;12.802;2023-11-21T04:43:37;13.03;;;11.70;;
76115;SDS011;64847;45.778;12.802;2023-11-21T04:46:02;12.37;;;11.27;;
76115;SDS011;64847;45.778;12.802;2023-11-21T04:48:28;11.60;;;10.53;;
76115;SDS011;64847;45.778;12.802;2023-11-21T04:50:53;12.23;;;11.03;;
76115;SDS011;64847;45.778;12.802;2023-11-21T04:53:19;12.67;;;11.37;;
76115;SDS011;64847;45.778;12.802;2023-11-21T04:55:44;12.83;;;11.57;;
76115;SDS011;64847;45.778;12.802;2023-11-21T04:58:10;12.27;;;11.17;;
76115;SDS011;64847;45.778;12.802;2023-11-21T05:00:37;12.40;;;11.30;;
76115;SDS011;64847;45.778;12.802;2023-11-21T05:03:02;12.93;;;11.63;;
76115;SDS011;64847;45.778;12.802;2023-11-21T05:05:29;12.50;;;11.20;;
76115;SDS011;64847;45.778;12.802;2023-11-21T05:07:55;12.27;;;11.17;;
76115;SDS011;64847;45.778;12.802;2023-11-21T05:10:20;12.03;;;10.93;;
76115;SDS011;64847;45.778;12.802;2023-11-21T05:12:47;12.40;;;11.03;;
76115;SDS011;64847;45.778;12.802;2023-11-21T05:15:14;12.17;;;10.97;;
76115;SDS011;64847;45.778;12.802;2023-11-21T05:17:40;12.50;;;11.23;;
76115;SDS011;64847;45.778;12.802;2023-11-21T05:20:15;12.70;;;11.27;;
76115;SDS011;64847;45.778;12.802;2023-11-21T05:22:46;12.10;;;10.80;;
76115;SDS011;64847;45.778;12.802;2023-11-21T05:25:13;12.30;;;11.20;;
76115;SDS011;64847;45.778;12.802;2023-11-21T05:27:39;12.17;;;10.97;;
76115;SDS011;64847;45.778;12.802;2023-11-21T05:30:04;12.97;;;11.63;;
76115;SDS011;64847;45.778;12.802;2023-11-21T05:32:31;11.97;;;10.87;;
76115;SDS011;64847;45.778;12.802;2023-11-21T05:34:56;11.97;;;10.83;;
76115;SDS011;64847;45.778;12.802;2023-11-21T05:37:22;11.17;;;10.17;;
76115;SDS011;64847;45.778;12.802;2023-11-21T05:39:48;11.20;;;10.20;;
76115;SDS011;64847;45.778;12.802;2023-11-21T05:42:14;11.10;;;9.97;;
76115;SDS011;64847;45.778;12.802;2023-11-21T05:44:41;10.43;;;9.53;;
76115;SDS011;64847;45.778;12.802;2023-11-21T05:47:08;10.43;;;9.43;;
76115;SDS011;64847;45.778;12.802;2023-11-21T05:52:46;10.57;;;9.50;;
76115;SDS011;64847;45.778;12.802;2023-11-21T05:55:12;9.40;;;8.60;;
76115;SDS011;64847;45.778;12.802;2023-11-21T05:57:38;9.13;;;8.33;;
76115;SDS011;64847;45.778;12.802;2023-11-21T06:00:05;8.87;;;7.97;;
76115;SDS011;64847;45.778;12.802;2023-11-21T06:02:49;9.10;;;8.30;;
76115;SDS011;64847;45.778;12.802;2023-11-21T06:05:18;8.97;;;8.17;;
76115;SDS011;64847;45.778;12.802;2023-11-21T06:07:52;9.27;;;8.47;;
76115;SDS011;64847;45.778;12.802;2023-11-21T06:10:20;8.70;;;7.90;;
76115;SDS011;64847;45.778;12.802;2023-11-21T06:12:45;9.70;;;8.87;;
76115;SDS011;64847;45.778;12.802;2023-11-21T06:15:11;8.80;;;8.00;;
76115;SDS011;64847;45.778;12.802;2023-11-21T06:17:40;9.47;;;8.63;;
76115;SDS011;64847;45.778;12.802;2023-11-21T06:20:07;10.13;;;9.13;;
76115;SDS011;64847;45.778;12.802;2023-11-21T06:22:39;9.57;;;8.67;;
76115;SDS011;64847;45.778;12.802;2023-11-21T06:25:06;9.03;;;8.23;;
76115;SDS011;64847;45.778;12.802;2023-11-21T06:27:37;9.33;;;8.43;;
76115;SDS011;64847;45.778;12.802;2023-11-21T06:30:04;9.33;;;8.53;;
76115;SDS011;64847;45.778;12.802;2023-11-21T06:32:31;10.13;;;9.20;;
76115;SDS011;64847;45.778;12.802;2023-11-21T06:34:57;9.90;;;9.00;;
76115;SDS011;64847;45.778;12.802;2023-11-21T06:37:25;10.47;;;9.47;;
76115;SDS011;64847;45.778;12.802;2023-11-21T06:39:51;10.73;;;9.70;;
76115;SDS011;64847;45.778;12.802;2023-11-21T06:42:17;13.40;;;10.57;;
76115;SDS011;64847;45.778;12.802;2023-11-21T06:44:44;10.73;;;9.73;;
76115;SDS011;64847;45.778;12.802;2023-11-21T06:47:10;11.10;;;9.83;;
76115;SDS011;64847;45.778;12.802;2023-11-21T06:49:37;11.10;;;10.20;;
76115;SDS011;64847;45.778;12.802;2023-11-21T06:52:03;10.60;;;9.57;;
76115;SDS011;64847;45.778;12.802;2023-11-21T06:54:31;9.83;;;9.03;;
76115;SDS011;64847;45.778;12.802;2023-11-21T06:56:57;9.63;;;8.73;;
76115;SDS011;64847;45.778;12.802;2023-11-21T06:59:23;9.27;;;8.37;;
76115;SDS011;64847;45.778;12.802;2023-11-21T07:01:49;9.50;;;8.60;;
76115;SDS011;64847;45.778;12.802;2023-11-21T07:04:15;9.93;;;9.13;;
76115;SDS011;64847;45.778;12.802;2023-11-21T07:06:40;9.43;;;8.63;;
76115;SDS011;64847;45.778;12.802;2023-11-21T07:09:06;9.73;;;8.83;;
76115;SDS011;64847;45.778;12.802;2023-11-21T07:11:33;10.43;;;9.27;;
76115;SDS011;64847;45.778;12.802;2023-11-21T07:13:59;9.17;;;8.40;;
76115;SDS011;64847;45.778;12.802;2023-11-21T07:16:25;9.33;;;8.53;;
76115;SDS011;64847;45.778;12.802;2023-11-21T07:18:51;8.90;;;8.13;;
76115;SDS011;64847;45.778;12.802;2023-11-21T07:21:17;9.50;;;8.60;;
76115;SDS011;64847;45.778;12.802;2023-11-21T07:23:42;9.57;;;8.77;;
76115;SDS011;64847;45.778;12.802;2023-11-21T07:26:08;9.47;;;8.67;;
76115;SDS011;64847;45.778;12.802;2023-11-21T07:28:35;9.43;;;8.53;;
76115;SDS011;64847;45.778;12.802;2023-11-21T07:31:01;8.77;;;7.97;;
76115;SDS011;64847;45.778;12.802;2023-11-21T07:33:26;9.67;;;8.77;;
76115;SDS011;64847;45.778;12.802;2023-11-21T07:35:52;9.20;;;8.50;;
76115;SDS011;64847;45.778;12.802;2023-11-21T07:38:18;9.47;;;8.60;;
76115;SDS011;64847;45.778;12.802;2023-11-21T07:40:43;9.73;;;8.83;;
76115;SDS011;64847;45.778;12.802;2023-11-21T07:43:08;8.53;;;7.83;;
76115;SDS011;64847;45.778;12.802;2023-11-21T07:45:35;9.20;;;8.40;;
76115;SDS011;64847;45.778;12.802;2023-11-21T07:48:01;9.43;;;8.60;;
76115;SDS011;64847;45.778;12.802;2023-11-21T07:50:28;8.33;;;7.63;;
76115;SDS011;64847;45.778;12.802;2023-11-21T07:52:54;8.00;;;7.33;;
76115;SDS011;64847;45.778;12.802;2023-11-21T07:55:20;8.00;;;7.20;;
76115;SDS011;64847;45.778;12.802;2023-11-21T07:57:45;7.67;;;7.00;;
76115;SDS011;64847;45.778;12.802;2023-11-21T08:00:11;7.23;;;6.63;;
76115;SDS011;64847;45.778;12.802;2023-11-21T08:02:37;7.50;;;6.80;;
76115;SDS011;64847;45.778;12.802;2023-11-21T08:05:04;6.90;;;6.30;;
76115;SDS011;64847;45.778;12.802;2023-11-21T08:07:32;6.23;;;5.73;;
76115;SDS011;64847;45.778;12.802;2023-11-21T08:09:58;5.60;;;5.20;;
76115;SDS011;64847;45.778;12.802;2023-11-21T08:12:23;6.03;;;5.53;;
76115;SDS011;64847;45.778;12.802;2023-11-21T08:14:49;5.20;;;4.80;;
76115;SDS011;64847;45.778;12.802;2023-11-21T08:17:14;5.10;;;4.70;;
76115;SDS011;64847;45.778;12.802;2023-11-21T08:19:40;4.10;;;3.80;;
76115;SDS011;64847;45.778;12.802;2023-11-21T08:22:06;3.90;;;3.60;;
76115;SDS011;64847;45.778;12.802;2023-11-21T08:24:32;3.30;;;3.10;;
76115;SDS011;64847;45.778;12.802;2023-11-21T08:26:58;3.13;;;2.93;;
76115;SDS011;64847;45.778;12.802;2023-11-21T08:29:23;3.00;;;2.80;;
76115;SDS011;64847;45.778;12.802;2023-11-21T08:31:49;2.87;;;2.70;;
76115;SDS011;64847;45.778;12.802;2023-11-21T08:34:14;2.43;;;2.33;;
76115;SDS011;64847;45.778;12.802;2023-11-21T08:36:43;2.60;;;2.40;;
76115;SDS011;64847;45.778;12.802;2023-11-21T08:39:10;2.47;;;2.27;;
76115;SDS011;64847;45.778;12.802;2023-11-21T08:41:35;2.60;;;2.40;;
76115;SDS011;64847;45.778;12.802;2023-11-21T08:44:01;2.63;;;2.07;;
76115;SDS011;64847;45.778;12.802;2023-11-21T08:46:27;2.40;;;2.20;;
76115;SDS011;64847;45.778;12.802;2023-11-21T08:48:53;2.43;;;2.20;;
76115;SDS011;64847;45.778;12.802;2023-11-21T08:51:18;1.97;;;1.87;;
76115;SDS011;64847;45.778;12.802;2023-11-21T08:53:43;2.10;;;2.00;;
76115;SDS011;64847;45.778;12.802;2023-11-21T08:56:15;2.30;;;2.10;;
76115;SDS011;64847;45.778;12.802;2023-11-21T08:58:40;2.10;;;2.00;;
76115;SDS011;64847;45.778;12.802;2023-11-21T09:01:06;1.90;;;1.80;;
76115;SDS011;64847;45.778;12.802;2023-11-21T09:03:32;2.37;;;2.20;;
76115;SDS011;64847;45.778;12.802;2023-11-21T09:05:59;2.20;;;2.10;;
76115;SDS011;64847;45.778;12.802;2023-11-21T09:08:25;1.90;;;1.80;;
76115;SDS011;64847;45.778;12.802;2023-11-21T09:10:50;2.00;;;1.90;;
76115;SDS011;64847;45.778;12.802;2023-11-21T09:13:17;2.03;;;1.93;;
76115;SDS011;64847;45.778;12.802;2023-11-21T09:15:43;1.97;;;1.83;;
76115;SDS011;64847;45.778;12.802;2023-11-21T09:18:11;2.43;;;2.10;;
76115;SDS011;64847;45.778;12.802;2023-11-21T09:20:40;2.20;;;2.10;;
76115;SDS011;64847;45.778;12.802;2023-11-21T09:23:07;2.03;;;1.80;;
76115;SDS011;64847;45.778;12.802;2023-11-21T09:25:33;2.37;;;2.27;;
76115;SDS011;64847;45.778;12.802;2023-11-21T09:27:58;2.27;;;2.07;;
76115;SDS011;64847;45.778;12.802;2023-11-21T09:30:24;1.87;;;1.77;;
76115;SDS011;64847;45.778;12.802;2023-11-21T09:32:50;2.93;;;1.87;;
76115;SDS011;64847;45.778;12.802;2023-11-21T09:35:17;2.00;;;1.90;;
76115;SDS011;64847;45.778;12.802;2023-11-21T09:37:43;2.10;;;2.00;;
76115;SDS011;64847;45.778;12.802;2023-11-21T09:40:11;1.97;;;1.87;;
76115;SDS011;64847;45.778;12.802;2023-11-21T09:42:43;1.93;;;1.83;;
76115;SDS011;64847;45.778;12.802;2023-11-21T09:45:17;2.07;;;1.97;;
76115;SDS011;64847;45.778;12.802;2023-11-21T09:47:45;1.80;;;1.70;;
76115;SDS011;64847;45.778;12.802;2023-11-21T09:50:11;2.27;;;2.07;;
76115;SDS011;64847;45.778;12.802;2023-11-21T09:55:50;2.00;;;1.90;;
76115;SDS011;64847;45.778;12.802;2023-11-21T09:58:17;2.10;;;1.90;;
76115;SDS011;64847;45.778;12.802;2023-11-21T10:00:48;2.13;;;2.00;;
76115;SDS011;64847;45.778;12.802;2023-11-21T10:03:14;1.97;;;1.87;;
76115;SDS011;64847;45.778;12.802;2023-11-21T10:05:41;2.10;;;2.00;;
76115;SDS011;64847;45.778;12.802;2023-11-21T10:08:08;2.00;;;1.90;;
76115;SDS011;64847;45.778;12.802;2023-11-21T10:10:35;2.10;;;1.80;;
76115;SDS011;64847;45.778;12.802;2023-11-21T10:13:02;2.97;;;1.93;;
76115;SDS011;64847;45.778;12.802;2023-11-21T10:15:32;1.77;;;1.67;;
76115;SDS011;64847;45.778;12.802;2023-11-21T10:17:59;2.17;;;1.93;;
76115;SDS011;64847;45.778;12.802;2023-11-21T10:20:28;1.70;;;1.60;;
76115;SDS011;64847;45.778;12.802;2023-11-21T10:22:54;1.73;;;1.63;;
76115;SDS011;64847;45.778;12.802;2023-11-21T10:25:21;1.60;;;1.50;;
76115;SDS011;64847;45.778;12.802;2023-11-21T10:27:47;1.40;;;1.40;;
76115;SDS011;64847;45.778;12.802;2023-11-21T10:30:16;1.77;;;1.50;;
76115;SDS011;64847;45.778;12.802;2023-11-21T10:32:43;2.20;;;1.40;;
76115;SDS011;64847;45.778;12.802;2023-11-21T10:35:09;1.60;;;1.60;;
76115;SDS011;64847;45.778;12.802;2023-11-21T10:37:44;1.40;;;1.40;;
76115;SDS011;64847;45.778;12.802;2023-11-21T10:40:10;1.50;;;1.40;;
76115;SDS011;64847;45.778;12.802;2023-11-21T10:42:37;1.40;;;1.40;;
76115;SDS011;64847;45.778;12.802;2023-11-21T10:45:04;1.43;;;1.33;;
76115;SDS011;64847;45.778;12.802;2023-11-21T10:47:37;1.13;;;1.13;;
76115;SDS011;64847;45.778;12.802;2023-11-21T10:50:03;1.30;;;1.20;;
76115;SDS011;64847;45.778;12.802;2023-11-21T10:52:29;1.40;;;1.30;;
76115;SDS011;64847;45.778;12.802;2023-11-21T10:54:54;1.27;;;1.27;;
76115;SDS011;64847;45.778;12.802;2023-11-21T10:57:20;1.20;;;1.20;;
76115;SDS011;64847;45.778;12.802;2023-11-21T10:59:47;1.20;;;1.10;;
76115;SDS011;64847;45.778;12.802;2023-11-21T11:02:23;1.33;;;1.23;;
76115;SDS011;64847;45.778;12.802;2023-11-21T11:04:53;1.00;;;1.00;;
76115;SDS011;64847;45.778;12.802;2023-11-21T11:07:20;1.13;;;1.13;;
76115;SDS011;64847;45.778;12.802;2023-11-21T11:09:47;1.53;;;1.43;;
76115;SDS011;64847;45.778;12.802;2023-11-21T11:12:13;1.07;;;1.07;;
76115;SDS011;64847;45.778;12.802;2023-11-21T11:14:40;1.30;;;1.20;;
76115;SDS011;64847;45.778;12.802;2023-11-21T11:17:06;1.20;;;1.20;;
76115;SDS011;64847;45.778;12.802;2023-11-21T11:19:33;1.03;;;1.03;;
76115;SDS011;64847;45.778;12.802;2023-11-21T11:28:07;0.90;;;0.90;;
76115;SDS011;64847;45.778;12.802;2023-11-21T11:33:39;1.10;;;1.10;;
76115;SDS011;64847;45.778;12.802;2023-11-21T11:38:57;1.20;;;1.20;;
76115;SDS011;64847;45.778;12.802;2023-11-21T11:41:24;1.13;;;1.13;;
76115;SDS011;64847;45.778;12.802;2023-11-21T11:43:51;1.33;;;1.23;;
76115;SDS011;64847;45.778;12.802;2023-11-21T11:46:18;1.30;;;1.20;;
76115;SDS011;64847;45.778;12.802;2023-11-21T11:48:46;1.50;;;1.40;;
76115;SDS011;64847;45.778;12.802;2023-11-21T11:51:13;1.13;;;1.13;;
76115;SDS011;64847;45.778;12.802;2023-11-21T11:53:42;1.20;;;1.20;;
76115;SDS011;64847;45.778;12.802;2023-11-21T11:56:28;1.70;;;1.27;;
76115;SDS011;64847;45.778;12.802;2023-11-21T11:58:56;1.23;;;1.17;;
76115;SDS011;64847;45.778;12.802;2023-11-21T12:01:23;1.03;;;1.03;;
76115;SDS011;64847;45.778;12.802;2023-11-21T12:06:45;1.33;;;1.23;;
76115;SDS011;64847;45.778;12.802;2023-11-21T12:09:23;0.97;;;0.97;;
76115;SDS011;64847;45.778;12.802;2023-11-21T12:11:49;1.27;;;1.10;;
76115;SDS011;64847;45.778;12.802;2023-11-21T12:14:15;0.93;;;0.93;;
76115;SDS011;64847;45.778;12.802;2023-11-21T12:16:42;1.03;;;1.03;;
76115;SDS011;64847;45.778;12.802;2023-11-21T12:19:13;1.07;;;1.07;;
76115;SDS011;64847;45.778;12.802;2023-11-21T12:21:39;1.50;;;1.40;;
76115;SDS011;64847;45.778;12.802;2023-11-21T12:24:13;1.30;;;1.30;;
76115;SDS011;64847;45.778;12.802;2023-11-21T12:26:39;1.50;;;1.40;;
76115;SDS011;64847;45.778;12.802;2023-11-21T12:29:05;1.57;;;1.33;;
76115;SDS011;64847;45.778;12.802;2023-11-21T12:31:32;1.40;;;1.30;;
76115;SDS011;64847;45.778;12.802;2023-11-21T12:33:59;1.80;;;1.43;;
76115;SDS011;64847;45.778;12.802;2023-11-21T12:36:25;1.87;;;1.50;;
76115;SDS011;64847;45.778;12.802;2023-11-21T12:38:51;1.30;;;1.30;;
76115;SDS011;64847;45.778;12.802;2023-11-21T12:41:16;3.63;;;1.57;;
76115;SDS011;64847;45.778;12.802;2023-11-21T12:43:47;2.83;;;1.47;;
76115;SDS011;64847;45.778;12.802;2023-11-21T12:46:13;3.17;;;1.30;;
76115;SDS011;64847;45.778;12.802;2023-11-21T12:48:41;2.33;;;1.43;;
76115;SDS011;64847;45.778;12.802;2023-11-21T12:51:11;1.13;;;1.13;;
76115;SDS011;64847;45.778;12.802;2023-11-21T12:53:37;1.53;;;1.43;;
76115;SDS011;64847;45.778;12.802;2023-11-21T12:58:45;1.60;;;1.20;;
76115;SDS011;64847;45.778;12.802;2023-11-21T13:01:12;1.73;;;1.23;;
76115;SDS011;64847;45.778;12.802;2023-11-21T13:03:43;1.33;;;1.23;;
76115;SDS011;64847;45.778;12.802;2023-11-21T13:06:10;2.20;;;1.37;;
76115;SDS011;64847;45.778;12.802;2023-11-21T13:08:37;1.23;;;1.23;;
76115;SDS011;64847;45.778;12.802;2023-11-21T13:11:04;1.60;;;1.50;;
76115;SDS011;64847;45.778;12.802;2023-11-21T13:13:31;1.40;;;1.27;;
76115;SDS011;64847;45.778;12.802;2023-11-21T13:16:01;1.33;;;1.33;;
76115;SDS011;64847;45.778;12.802;2023-11-21T13:18:30;1.63;;;1.60;;
76115;SDS011;64847;45.778;12.802;2023-11-21T13:20:59;1.40;;;1.40;;
76115;SDS011;64847;45.778;12.802;2023-11-21T13:23:27;1.70;;;1.57;;
76115;SDS011;64847;45.778;12.802;2023-11-21T13:25:54;1.20;;;1.20;;
76115;SDS011;64847;45.778;12.802;2023-11-21T13:28:20;1.27;;;1.27;;
76115;SDS011;64847;45.778;12.802;2023-11-21T13:30:47;1.30;;;1.30;;
76115;SDS011;64847;45.778;12.802;2023-11-21T13:33:13;2.07;;;1.37;;
76115;SDS011;64847;45.778;12.802;2023-11-21T13:35:42;1.77;;;1.60;;
76115;SDS011;64847;45.778;12.802;2023-11-21T13:38:13;1.70;;;1.60;;
76115;SDS011;64847;45.778;12.802;2023-11-21T13:40:42;1.70;;;1.60;;
76115;SDS011;64847;45.778;12.802;2023-11-21T13:43:14;1.67;;;1.37;;
76115;SDS011;64847;45.778;12.802;2023-11-21T13:45:43;1.10;;;1.10;;
76115;SDS011;64847;45.778;12.802;2023-11-21T13:48:10;1.53;;;1.30;;
76115;SDS011;64847;45.778;12.802;2023-11-21T13:50:37;1.60;;;1.50;;
76115;SDS011;64847;45.778;12.802;2023-11-21T13:53:02;1.87;;;1.77;;
76115;SDS011;64847;45.778;12.802;2023-11-21T13:55:44;1.70;;;1.60;;
76115;SDS011;64847;45.778;12.802;2023-11-21T13:58:10;1.83;;;1.73;;
76115;SDS011;64847;45.778;12.802;2023-11-21T14:00:41;1.30;;;1.30;;
76115;SDS011;64847;45.778;12.802;2023-11-21T14:03:10;1.30;;;1.20;;
76115;SDS011;64847;45.778;12.802;2023-11-21T14:05:44;1.30;;;1.30;;
76115;SDS011;64847;45.778;12.802;2023-11-21T14:08:12;1.57;;;1.30;;
76115;SDS011;64847;45.778;12.802;2023-11-21T14:10:41;1.20;;;1.20;;
76115;SDS011;64847;45.778;12.802;2023-11-21T14:13:11;1.63;;;1.20;;
76115;SDS011;64847;45.778;12.802;2023-11-21T14:15:38;1.53;;;1.13;;
76115;SDS011;64847;45.778;12.802;2023-11-21T14:18:09;1.10;;;1.10;;
76115;SDS011;64847;45.778;12.802;2023-11-21T14:20:42;1.40;;;1.30;;
76115;SDS011;64847;45.778;12.802;2023-11-21T14:23:08;1.60;;;1.53;;
76115;SDS011;64847;45.778;12.802;2023-11-21T14:25:35;1.33;;;1.23;;
76115;SDS011;64847;45.778;12.802;2023-11-21T14:28:02;1.30;;;1.30;;
76115;SDS011;64847;45.778;12.802;2023-11-21T14:30:29;1.40;;;1.30;;
76115;SDS011;64847;45.778;12.802;2023-11-21T14:32:57;1.53;;;1.43;;
76115;SDS011;64847;45.778;12.802;2023-11-21T14:35:23;1.30;;;1.30;;
76115;SDS011;64847;45.778;12.802;2023-11-21T14:37:48;1.30;;;1.20;;
76115;SDS011;64847;45.778;12.802;2023-11-21T14:40:14;1.20;;;1.10;;
76115;SDS011;64847;45.778;12.802;2023-11-21T14:42:41;1.00;;;1.00;;
76115;SDS011;64847;45.778;12.802;2023-11-21T14:45:07;1.40;;;1.30;;
76115;SDS011;64847;45.778;12.802;2023-11-21T14:47:34;1.67;;;1.00;;